Time;durP1;ratioP1;P1;durP2;ratioP2;P2;SDS_P1;SDS_P2;PMS_P1;PMS_P2;Temp;Humidity;BMP_temperature;BMP_pressure;BME280_temperature;BME280_humidity;BME280_pressure;Samples;Min_cycle;Max_cycle;Signal;HPM_P1;HPM_P2
2022/03/08 00:02:19;;;;;;;4.07;2.03;;;;;;;18.64;38.54;102275.06;5033509;28;20034;-64
2022/03/08 00:04:45;;;;;;;3.53;2.00;;;;;;;18.63;38.64;102273.41;5033615;28;20032;-64
2022/03/08 00:07:10;;;;;;;3.95;2.28;;;;;;;18.60;38.47;102273.59;5032844;28;20017;-65
2022/03/08 00:09:36;;;;;;;3.63;2.03;;;;;;;18.57;38.44;102268.50;5033030;28;20050;-64
2022/03/08 00:12:02;;;;;;;4.05;2.05;;;;;;;18.54;38.42;102269.50;5033816;28;20053;-64
2022/03/08 00:14:28;;;;;;;4.50;2.13;;;;;;;18.52;38.24;102270.53;5032303;28;20029;-62
2022/03/08 00:16:53;;;;;;;3.63;2.05;;;;;;;18.48;38.30;102262.81;5033428;28;20026;-64
2022/03/08 00:19:18;;;;;;;4.17;2.27;;;;;;;18.46;38.67;102264.69;5033449;28;20025;-64
2022/03/08 00:21:50;;;;;;;4.25;2.25;;;;;;;18.43;38.53;102264.88;5032408;28;20273;-64
2022/03/08 00:24:16;;;;;;;4.45;2.08;;;;;;;18.41;38.58;102265.94;5033220;28;20056;-64
2022/03/08 00:26:42;;;;;;;7.22;2.45;;;;;;;18.37;38.51;102259.13;5033188;28;20032;-64
2022/03/08 00:29:07;;;;;;;3.78;1.90;;;;;;;18.35;38.53;102264.50;5032460;28;20018;-64
2022/03/08 00:31:32;;;;;;;3.60;1.87;;;;;;;18.33;38.57;102260.25;5033148;28;20028;-64
2022/03/08 00:33:58;;;;;;;4.22;2.20;;;;;;;18.32;38.63;102264.66;5032168;28;20270;-64
2022/03/08 00:36:23;;;;;;;3.72;2.00;;;;;;;18.30;38.93;102262.13;5032557;28;20481;-64
2022/03/08 00:38:49;;;;;;;4.38;1.92;;;;;;;18.27;38.79;102251.75;5033048;28;20025;-64
2022/03/08 00:41:14;;;;;;;3.70;1.90;;;;;;;18.26;38.95;102257.13;5032410;28;20440;-64
2022/03/08 00:43:39;;;;;;;4.10;1.80;;;;;;;18.25;38.58;102255.44;5032805;28;20067;-63
2022/03/08 00:46:08;;;;;;;3.92;1.67;;;;;;;18.23;38.92;102252.88;5032992;28;20092;-64
2022/03/08 00:48:33;;;;;;;3.67;1.98;;;;;;;18.24;38.67;102256.38;5031905;28;20033;-64
2022/03/08 00:50:58;;;;;;;3.38;1.85;;;;;;;18.22;38.99;102258.25;5032799;28;20022;-63
2022/03/08 00:53:24;;;;;;;3.90;1.80;;;;;;;18.19;38.89;102258.44;5032426;28;20029;-63
2022/03/08 00:55:49;;;;;;;4.20;1.90;;;;;;;18.16;39.00;102256.81;5032220;28;20470;-63
2022/03/08 00:58:14;;;;;;;4.00;2.00;;;;;;;18.15;38.79;102256.91;5032695;28;20139;-64
2022/03/08 01:00:41;;;;;;;3.70;1.80;;;;;;;18.13;38.88;102263.16;5032777;28;20033;-64
2022/03/08 01:03:07;;;;;;;3.38;1.88;;;;;;;18.11;38.56;102258.88;5032044;28;20068;-64
2022/03/08 01:05:35;;;;;;;4.18;2.13;;;;;;;18.12;39.12;102255.31;5032570;28;20026;-64
2022/03/08 01:08:01;;;;;;;3.90;2.00;;;;;;;18.24;39.09;102253.72;5032674;28;20028;-64
2022/03/08 01:10:28;;;;;;;3.35;1.92;;;;;;;18.38;38.95;102256.38;5031469;28;20397;-64
2022/03/08 01:12:54;;;;;;;3.88;1.85;;;;;;;18.47;38.42;102255.00;5032828;28;20038;-64
2022/03/08 01:15:21;;;;;;;4.88;1.90;;;;;;;18.53;38.59;102251.97;5032222;28;20037;-64
2022/03/08 01:17:47;;;;;;;3.97;2.10;;;;;;;18.58;38.64;102249.03;5031983;28;20025;-63
2022/03/08 01:20:13;;;;;;;3.90;1.92;;;;;;;18.61;38.80;102248.84;5033028;28;20358;-63
2022/03/08 01:22:39;;;;;;;4.55;2.22;;;;;;;18.65;38.65;102250.38;5032185;28;20026;-63
2022/03/08 01:25:05;;;;;;;3.92;1.90;;;;;;;18.67;38.57;102252.00;5032011;28;20370;-63
2022/03/08 01:27:31;;;;;;;3.92;2.00;;;;;;;18.68;38.52;102242.28;5032403;28;20025;-63
2022/03/08 01:29:56;;;;;;;3.53;1.75;;;;;;;18.65;38.39;102243.31;5032589;28;20514;-63
2022/03/08 01:32:22;;;;;;;3.53;1.80;;;;;;;18.63;38.44;102239.06;5031593;28;20040;-63
2022/03/08 01:34:47;;;;;;;4.28;2.08;;;;;;;18.60;38.76;102237.47;5032416;28;20036;-63
2022/03/08 01:37:12;;;;;;;3.85;2.00;;;;;;;18.61;38.87;102227.72;5031652;28;20113;-63
2022/03/08 01:39:38;;;;;;;3.45;1.83;;;;;;;18.58;38.58;102228.78;5032352;28;20044;-63
2022/03/08 01:42:12;;;;;;;4.10;2.08;;;;;;;18.54;38.88;102221.16;5032444;28;20198;-64
2022/03/08 01:44:41;;;;;;;3.83;1.90;;;;;;;18.45;38.40;102219.91;5031364;28;20017;-63
2022/03/08 01:47:07;;;;;;;4.05;1.92;;;;;;;18.40;38.90;102214.06;5034017;28;20021;-63
2022/03/08 01:49:32;;;;;;;4.30;1.90;;;;;;;18.36;38.65;102218.69;5036109;28;20100;-63
2022/03/08 01:51:58;;;;;;;3.90;2.00;;;;;;;18.31;38.86;102213.69;5035299;28;20017;-63
2022/03/08 01:54:23;;;;;;;4.05;1.83;;;;;;;18.27;39.03;102214.81;5035866;28;20029;-63
2022/03/08 01:56:49;;;;;;;3.13;1.70;;;;;;;18.26;38.78;102212.25;5036184;28;20025;-63
2022/03/08 01:59:14;;;;;;;3.83;1.95;;;;;;;18.22;39.00;102205.47;5035325;28;20492;-63
2022/03/08 02:01:39;;;;;;;3.97;2.10;;;;;;;18.33;38.56;102205.69;5035544;28;20116;-63
2022/03/08 02:04:07;;;;;;;3.78;2.00;;;;;;;18.41;38.63;102205.22;5035906;28;20274;-63
2022/03/08 02:06:32;;;;;;;4.82;2.08;;;;;;;18.48;38.50;102206.53;5034984;28;20025;-63
2022/03/08 02:08:58;;;;;;;3.53;1.75;;;;;;;18.52;38.34;102205.41;5035993;28;20033;-64
2022/03/08 02:11:23;;;;;;;4.18;2.10;;;;;;;18.57;38.50;102199.84;5035441;28;20410;-64
2022/03/08 02:13:48;;;;;;;3.80;2.10;;;;;;;18.59;38.36;102192.66;5034931;28;20036;-63
2022/03/08 02:16:14;;;;;;;3.35;1.70;;;;;;;18.60;38.03;102189.94;5035889;28;20108;-63
2022/03/08 02:18:40;;;;;;;3.53;2.00;;;;;;;18.61;38.10;102191.63;5035575;28;20107;-63
2022/03/08 02:21:07;;;;;;;3.53;1.70;;;;;;;18.63;38.28;102186.25;5034838;28;20376;-63
2022/03/08 02:23:32;;;;;;;3.30;1.80;;;;;;;18.64;38.01;102185.31;5035508;28;20036;-63
2022/03/08 02:25:57;;;;;;;3.00;1.58;;;;;;;18.63;37.58;102194.19;5035462;28;20022;-64
2022/03/08 02:28:22;;;;;;;4.25;2.08;;;;;;;18.64;37.97;102188.81;5034410;28;20083;-64
2022/03/08 02:30:48;;;;;;;4.25;1.90;;;;;;;18.68;37.71;102194.75;5035488;28;20384;-64
2022/03/08 02:33:13;;;;;;;3.88;2.10;;;;;;;18.69;37.46;102185.84;5035140;28;20489;-64
2022/03/08 02:35:38;;;;;;;5.13;2.00;;;;;;;18.70;37.38;102184.91;5034116;28;20033;-64
2022/03/08 02:38:06;;;;;;;3.67;2.00;;;;;;;18.72;37.48;102183.03;5035457;28;20049;-64
2022/03/08 02:40:38;;;;;;;3.65;1.80;;;;;;;18.73;37.38;102171.53;5034298;28;20420;-64
2022/03/08 02:43:05;;;;;;;3.90;2.00;;;;;;;18.72;37.17;102172.47;5035094;28;20523;-64
2022/03/08 02:45:31;;;;;;;4.50;1.95;;;;;;;18.73;37.07;102165.41;5034761;28;20026;-64
2022/03/08 02:47:56;;;;;;;3.30;1.90;;;;;;;18.73;37.25;102163.59;5034293;28;20018;-64
2022/03/08 02:50:22;;;;;;;3.55;2.00;;;;;;;18.74;36.97;102164.44;5034783;28;20048;-64
2022/03/08 02:52:51;;;;;;;3.45;1.90;;;;;;;18.75;36.91;102163.50;5035137;28;20033;-64
2022/03/08 02:55:19;;;;;;;4.60;2.20;;;;;;;18.78;36.93;102156.22;5034317;28;20049;-64
2022/03/08 02:57:44;;;;;;;3.90;2.15;;;;;;;18.79;36.72;102155.28;5034637;28;20026;-64
2022/03/08 03:00:12;;;;;;;3.25;1.63;;;;;;;18.83;36.65;102153.31;5035078;28;20033;-64
2022/03/08 03:02:38;;;;;;;3.55;1.70;;;;;;;18.85;36.83;102149.66;5033871;28;20099;-64
2022/03/08 03:05:04;;;;;;;3.88;2.25;;;;;;;18.83;36.58;102143.59;5034726;28;20468;-64
2022/03/08 03:07:29;;;;;;;4.10;2.30;;;;;;;18.84;36.70;102147.13;5034678;28;20040;-64
2022/03/08 03:09:55;;;;;;;4.55;2.13;;;;;;;18.82;36.52;102139.25;5033972;28;20489;-63
2022/03/08 03:12:20;;;;;;;3.75;1.88;;;;;;;18.82;36.92;102139.25;5034471;28;20033;-64
2022/03/08 03:14:45;;;;;;;3.43;1.70;;;;;;;18.81;36.49;102134.91;5034625;28;20045;-63
2022/03/08 03:17:11;;;;;;;3.83;1.92;;;;;;;18.78;36.72;102128.97;5033880;28;20361;-64
2022/03/08 03:19:36;;;;;;;3.05;1.75;;;;;;;18.78;36.56;102128.97;5034330;28;20032;-64
2022/03/08 03:22:06;;;;;;;3.45;1.80;;;;;;;18.78;36.49;102121.91;5034725;28;20099;-64
2022/03/08 03:24:31;;;;;;;3.95;2.08;;;;;;;18.79;36.56;102114.84;5033416;28;20018;-64
2022/03/08 03:26:56;;;;;;;4.30;2.10;;;;;;;18.81;36.33;102112.94;5034458;28;20476;-64
2022/03/08 03:29:22;;;;;;;3.53;1.90;;;;;;;18.83;36.49;102113.69;5034226;28;20801;-63
2022/03/08 03:31:47;;;;;;;3.70;1.92;;;;;;;18.79;36.58;102102.47;5033346;28;20721;-64
2022/03/08 03:34:12;;;;;;;3.43;1.80;;;;;;;18.80;36.75;102098.03;5034408;28;20056;-63
2022/03/08 03:36:38;;;;;;;3.65;1.90;;;;;;;18.79;36.62;102099.84;5033830;28;20271;-63
2022/03/08 03:39:06;;;;;;;3.35;1.85;;;;;;;18.78;36.51;102090.22;5033407;28;20028;-63
2022/03/08 03:41:32;;;;;;;4.15;2.13;;;;;;;18.78;36.58;102098.13;5033891;28;20079;-63
2022/03/08 03:43:57;;;;;;;3.50;2.00;;;;;;;18.76;36.28;102099.19;5033209;28;20030;-64
2022/03/08 03:46:22;;;;;;;3.92;2.25;;;;;;;18.79;36.39;102101.63;5033591;28;20029;-63
2022/03/08 03:48:48;;;;;;;4.15;1.90;;;;;;;18.82;36.11;102094.34;5034308;28;20025;-63
2022/03/08 03:51:14;;;;;;;4.32;2.30;;;;;;;18.83;35.97;102104.00;5033196;28;20033;-63
2022/03/08 03:53:40;;;;;;;3.05;1.75;;;;;;;18.87;36.09;102103.78;5033571;28;20060;-63
2022/03/08 03:56:08;;;;;;;3.63;1.80;;;;;;;18.88;36.28;102108.13;5033811;28;20056;-64
2022/03/08 03:58:34;;;;;;;3.50;1.88;;;;;;;18.87;36.00;102109.06;5032483;28;20685;-63
2022/03/08 04:00:59;;;;;;;3.55;1.70;;;;;;;18.85;36.42;102103.91;5033627;28;20026;-63
2022/03/08 04:03:24;;;;;;;3.08;1.80;;;;;;;18.82;36.23;102107.56;5033498;28;20491;-63
2022/03/08 04:05:50;;;;;;;3.77;1.90;;;;;;;18.82;36.16;102099.63;5032939;28;20033;-63
2022/03/08 04:08:17;;;;;;;3.83;1.80;;;;;;;18.81;36.29;102099.75;5033601;28;20635;-63
2022/03/08 04:10:45;;;;;;;3.92;1.95;;;;;;;18.83;36.02;102097.84;5032755;28;20121;-63
2022/03/08 04:13:10;;;;;;;3.20;1.90;;;;;;;18.83;35.92;102087.28;5032274;28;20124;-63
2022/03/08 04:15:35;;;;;;;3.78;2.00;;;;;;;18.90;35.85;102101.81;5033013;28;20136;-63
2022/03/08 04:18:01;;;;;;;3.78;1.90;;;;;;;18.89;35.80;102102.75;5033559;28;20036;-64
2022/03/08 04:20:26;;;;;;;4.05;2.00;;;;;;;18.90;35.82;102093.91;5032667;28;20089;-64
2022/03/08 04:22:51;;;;;;;3.28;1.70;;;;;;;18.90;35.70;102099.19;5033764;28;20028;-65
2022/03/08 04:25:16;;;;;;;3.38;1.70;;;;;;;18.89;35.60;102094.84;5033754;28;20024;-64
2022/03/08 04:27:42;;;;;;;3.20;1.77;;;;;;;18.87;36.15;102093.22;5032401;28;20365;-65
2022/03/08 04:30:09;;;;;;;3.47;2.10;;;;;;;18.83;36.09;102096.06;5033279;28;20384;-64
2022/03/08 04:32:35;;;;;;;3.45;1.90;;;;;;;18.82;35.83;102093.53;5033141;28;20104;-64
2022/03/08 04:35:00;;;;;;;4.35;1.90;;;;;;;18.82;36.07;102091.72;5032376;28;20120;-65
2022/03/08 04:37:26;;;;;;;3.80;2.00;;;;;;;18.84;35.97;102091.66;5033047;28;20488;-65
2022/03/08 04:39:51;;;;;;;4.15;2.15;;;;;;;18.89;36.11;102091.34;5033007;28;20468;-64
2022/03/08 04:42:17;;;;;;;3.53;1.92;;;;;;;18.89;35.67;102094.84;5032399;28;20030;-64
2022/03/08 04:44:42;;;;;;;3.70;1.90;;;;;;;18.89;35.87;102096.63;5032676;28;20379;-63
2022/03/08 04:47:07;;;;;;;3.17;1.90;;;;;;;18.88;35.81;102095.78;5032446;28;20040;-63
2022/03/08 04:49:33;;;;;;;3.47;1.80;;;;;;;18.85;35.75;102082.78;5032893;28;20027;-63
2022/03/08 04:51:58;;;;;;;3.55;1.85;;;;;;;18.82;35.88;102091.72;5033089;28;20032;-64
2022/03/08 04:54:23;;;;;;;3.40;1.70;;;;;;;18.81;35.83;102089.16;5031887;28;20480;-64
2022/03/08 04:56:49;;;;;;;3.72;1.85;;;;;;;18.77;35.73;102091.16;5032976;28;20037;-64
2022/03/08 04:59:14;;;;;;;4.22;2.10;;;;;;;18.79;35.63;102091.91;5032720;28;20112;-64
2022/03/08 05:01:40;;;;;;;3.60;2.00;;;;;;;18.81;35.48;102095.28;5032195;28;20110;-64
2022/03/08 05:04:05;;;;;;;4.07;2.15;;;;;;;18.84;35.41;102092.50;5032692;28;20032;-64
2022/03/08 05:06:30;;;;;;;3.33;1.80;;;;;;;18.87;35.33;102090.59;5032662;28;20033;-63
2022/03/08 05:08:56;;;;;;;3.80;2.10;;;;;;;18.88;35.32;102090.50;5032156;28;20026;-63
2022/03/08 05:11:21;;;;;;;3.72;1.90;;;;;;;18.85;35.08;102086.28;5032335;28;20048;-64
2022/03/08 05:13:47;;;;;;;4.60;2.10;;;;;;;18.87;35.25;102085.31;5032596;28;20112;-64
2022/03/08 05:16:12;;;;;;;3.25;1.70;;;;;;;18.87;35.28;102080.03;5032016;28;20274;-63
2022/03/08 05:18:37;;;;;;;3.20;1.90;;;;;;;18.83;35.90;102076.72;5032387;28;20017;-64
2022/03/08 05:21:03;;;;;;;4.07;2.07;;;;;;;18.82;35.62;102083.78;5032774;28;20075;-64
2022/03/08 05:23:28;;;;;;;3.63;1.93;;;;;;;18.80;35.57;102076.91;5035541;28;20336;-64
2022/03/08 05:25:53;;;;;;;3.22;1.73;;;;;;;18.82;35.75;102078.50;5036534;28;20719;-65
2022/03/08 05:28:19;;;;;;;4.10;2.10;;;;;;;18.85;35.65;102081.00;5036489;28;20076;-64
2022/03/08 05:30:45;;;;;;;3.45;1.55;;;;;;;18.88;35.53;102076.44;5035660;28;20515;-64
2022/03/08 05:33:10;;;;;;;3.63;1.83;;;;;;;18.90;35.74;102071.91;5036627;28;20049;-64
2022/03/08 05:35:36;;;;;;;3.80;1.98;;;;;;;18.90;35.32;102075.41;5036084;28;20100;-64
2022/03/08 05:38:01;;;;;;;3.45;1.73;;;;;;;18.90;35.89;102075.41;5035715;28;20038;-65
2022/03/08 05:40:27;;;;;;;3.67;1.80;;;;;;;18.90;35.70;102070.13;5035968;28;20029;-65
2022/03/08 05:42:53;;;;;;;4.07;2.17;;;;;;;18.89;35.49;102063.13;5036132;28;20021;-64
2022/03/08 05:45:18;;;;;;;3.42;1.90;;;;;;;18.88;35.67;102066.72;5035322;28;20029;-65
2022/03/08 05:47:43;;;;;;;3.03;1.75;;;;;;;18.86;35.57;102068.63;5036068;28;20025;-64
2022/03/08 05:50:11;;;;;;;3.70;1.92;;;;;;;18.82;35.81;102070.59;5036244;28;20392;-64
2022/03/08 05:52:36;;;;;;;3.45;1.77;;;;;;;18.83;35.47;102067.00;5034895;28;20498;-64
2022/03/08 05:55:05;;;;;;;3.28;1.70;;;;;;;18.87;35.77;102070.31;5035993;28;20026;-64
2022/03/08 05:57:30;;;;;;;2.88;1.63;;;;;;;18.87;35.42;102077.38;5034957;28;20029;-64
2022/03/08 05:59:56;;;;;;;4.78;1.77;;;;;;;18.88;35.43;102072.00;5036199;28;20022;-64
2022/03/08 06:02:22;;;;;;;3.83;1.90;;;;;;;18.92;35.75;102073.50;5035723;28;20025;-64
2022/03/08 06:04:47;;;;;;;2.60;1.60;;;;;;;18.99;35.67;102066.00;5035254;28;20282;-64
2022/03/08 06:07:13;;;;;;;3.10;1.50;;;;;;;19.08;36.65;102061.94;5035936;28;20014;-64
2022/03/08 06:09:38;;;;;;;3.05;1.63;;;;;;;19.14;36.53;102069.47;5035206;28;20080;-63
2022/03/08 06:12:04;;;;;;;3.15;1.65;;;;;;;19.21;36.76;102063.63;5035114;28;20026;-63
2022/03/08 06:14:30;;;;;;;3.10;1.50;;;;;;;19.27;36.50;102056.28;5035124;28;20091;-64
2022/03/08 06:16:55;;;;;;;3.50;1.55;;;;;;;19.32;37.06;102067.38;5035711;28;20056;-64
2022/03/08 06:19:21;;;;;;;3.33;1.50;;;;;;;19.35;36.78;102067.19;5034577;28;20460;-64
2022/03/08 06:21:46;;;;;;;3.57;1.80;;;;;;;19.40;37.05;102071.19;5035613;28;20033;-64
2022/03/08 06:24:12;;;;;;;4.18;1.58;;;;;;;19.43;37.06;102071.94;5035768;28;20811;-63
2022/03/08 06:26:38;;;;;;;3.40;1.40;;;;;;;19.43;36.64;102070.16;5034502;28;20099;-65
2022/03/08 06:29:04;;;;;;;3.10;1.58;;;;;;;19.46;37.08;102079.69;5035379;28;20496;-65
2022/03/08 06:31:29;;;;;;;3.47;1.70;;;;;;;19.48;36.98;102073.31;5035309;28;20026;-63
2022/03/08 06:33:54;;;;;;;3.33;1.60;;;;;;;19.48;37.12;102073.31;5034081;28;20071;-63
2022/03/08 06:36:20;;;;;;;3.70;1.63;;;;;;;19.51;37.30;102078.41;5034999;28;20303;-63
2022/03/08 06:38:45;;;;;;;3.55;1.60;;;;;;;19.50;37.23;102060.00;5035325;28;20375;-63
2022/03/08 06:41:10;;;;;;;3.97;1.63;;;;;;;19.51;38.22;102065.19;5034540;28;20029;-63
2022/03/08 06:43:35;;;;;;;3.15;1.60;;;;;;;19.55;38.29;102065.81;5034729;28;20021;-63
2022/03/08 06:46:01;;;;;;;2.90;1.52;;;;;;;19.58;38.01;102068.25;5035276;28;20441;-63
2022/03/08 06:48:26;;;;;;;3.58;1.50;;;;;;;19.57;37.70;102066.56;5034157;28;20022;-63
2022/03/08 06:50:51;;;;;;;3.03;1.60;;;;;;;19.61;38.12;102069.84;5035158;28;20030;-64
2022/03/08 06:53:16;;;;;;;2.80;1.33;;;;;;;19.62;38.20;102067.09;5034970;28;20017;-63
2022/03/08 06:55:42;;;;;;;3.17;1.50;;;;;;;19.61;38.25;102070.69;5033960;28;20029;-63
2022/03/08 06:58:07;;;;;;;3.03;1.40;;;;;;;19.62;38.57;102063.63;5034830;28;20278;-63
2022/03/08 07:00:33;;;;;;;3.13;1.40;;;;;;;19.64;38.08;102069.63;5034777;28;20036;-64
2022/03/08 07:02:58;;;;;;;4.03;1.40;;;;;;;19.64;38.51;102069.63;5034005;28;20653;-64
2022/03/08 07:05:23;;;;;;;3.10;1.45;;;;;;;19.65;38.79;102064.25;5034594;28;20025;-64
2022/03/08 07:07:48;;;;;;;2.87;1.40;;;;;;;19.68;38.93;102066.69;5034116;28;20380;-64
2022/03/08 07:10:14;;;;;;;3.65;1.80;;;;;;;19.67;39.00;102062.34;5034727;28;20321;-62
2022/03/08 07:12:39;;;;;;;3.90;1.75;;;;;;;19.61;35.63;102061.91;5034517;28;20076;-64
2022/03/08 07:15:06;;;;;;;3.75;1.83;;;;;;;19.55;34.82;102060.50;5033901;28;20026;-63
2022/03/08 07:17:31;;;;;;;3.20;1.80;;;;;;;19.57;37.12;102067.41;5034292;28;20025;-67
2022/03/08 07:19:57;;;;;;;2.80;1.20;;;;;;;19.65;38.08;102068.69;5034549;28;20144;-64
2022/03/08 07:22:22;;;;;;;3.20;1.60;;;;;;;19.74;38.52;102068.91;5033504;28;20094;-64
2022/03/08 07:24:47;;;;;;;2.58;1.33;;;;;;;19.80;38.34;102087.97;5034404;28;20026;-63
2022/03/08 07:27:13;;;;;;;2.95;1.55;;;;;;;19.83;38.66;102074.53;5034310;28;20108;-63
2022/03/08 07:29:38;;;;;;;3.15;1.45;;;;;;;19.84;38.78;102079.72;5033179;28;20038;-64
2022/03/08 07:32:04;;;;;;;2.97;1.30;;;;;;;19.85;38.31;102076.13;5034106;28;20096;-64
2022/03/08 07:34:29;;;;;;;2.55;1.30;;;;;;;19.88;38.53;102081.19;5033663;28;20464;-62
2022/03/08 07:36:55;;;;;;;2.67;1.40;;;;;;;19.88;38.56;102081.19;5033451;28;20029;-64
2022/03/08 07:39:20;;;;;;;3.22;1.23;;;;;;;19.90;38.45;102083.72;5033836;28;20104;-65
2022/03/08 07:41:45;;;;;;;2.05;1.17;;;;;;;19.91;38.56;102090.72;5034079;28;20388;-65
2022/03/08 07:44:10;;;;;;;3.50;1.70;;;;;;;19.91;38.55;102075.69;5032506;28;20037;-64
2022/03/08 07:46:36;;;;;;;3.25;1.60;;;;;;;19.93;38.47;102068.50;5033847;28;20021;-64
2022/03/08 07:49:02;;;;;;;2.63;1.40;;;;;;;19.93;38.87;102070.28;5033960;28;20025;-63
2022/03/08 07:51:27;;;;;;;3.35;1.52;;;;;;;19.89;39.00;102059.09;5032792;28;20056;-64
2022/03/08 07:53:53;;;;;;;2.33;1.30;;;;;;;19.84;39.18;102057.72;5033921;28;20028;-62
2022/03/08 07:56:18;;;;;;;4.35;1.23;;;;;;;19.80;39.99;102069.47;5033775;28;20029;-62
2022/03/08 07:58:43;;;;;;;4.35;1.20;;;;;;;19.83;41.02;102075.38;5032933;28;20098;-62
2022/03/08 08:01:09;;;;;;;3.63;1.20;;;;;;;19.92;40.90;102073.91;5033891;28;20025;-61
2022/03/08 08:03:34;;;;;;;3.00;1.50;;;;;;;20.02;40.96;102077.59;5033728;28;20033;-62
2022/03/08 08:06:02;;;;;;;3.25;1.40;;;;;;;20.07;40.75;102071.97;5032958;28;20026;-62
2022/03/08 08:08:27;;;;;;;3.15;1.48;;;;;;;20.07;40.86;102077.28;5033479;28;20029;-62
2022/03/08 08:10:52;;;;;;;3.53;1.60;;;;;;;20.07;37.90;102075.47;5033388;28;20135;-63
2022/03/08 08:13:18;;;;;;;4.47;1.80;;;;;;;20.04;37.49;102074.84;5033112;28;20067;-64
2022/03/08 08:15:43;;;;;;;3.40;1.70;;;;;;;20.03;36.73;102076.66;5033481;28;20137;-64
2022/03/08 08:18:08;;;;;;;3.45;1.60;;;;;;;20.03;38.14;102071.34;5032955;28;20317;-62
2022/03/08 08:20:33;;;;;;;2.90;1.42;;;;;;;20.06;38.60;102072.91;5033292;28;20186;-62
2022/03/08 08:22:59;;;;;;;4.00;1.60;;;;;;;20.13;39.27;102076.84;5033503;28;20022;-62
2022/03/08 08:25:24;;;;;;;3.33;1.60;;;;;;;20.21;39.61;102074.50;5032583;28;20037;-62
2022/03/08 08:27:49;;;;;;;3.30;1.50;;;;;;;20.27;39.95;102076.72;5033850;28;20431;-62
2022/03/08 08:30:15;;;;;;;2.65;1.40;;;;;;;20.30;39.73;102073.84;5033976;28;20037;-62
2022/03/08 08:32:41;;;;;;;3.30;1.45;;;;;;;20.38;39.18;102075.13;5032810;28;20027;-64
2022/03/08 08:35:07;;;;;;;2.95;1.40;;;;;;;20.35;40.23;102070.88;5034237;28;20032;-63
2022/03/08 08:37:32;;;;;;;2.75;1.38;;;;;;;20.35;39.65;102067.38;5033761;28;20079;-60
2022/03/08 08:39:57;;;;;;;3.20;1.38;;;;;;;20.35;40.21;102076.16;5033267;28;20357;-68
2022/03/08 08:42:23;;;;;;;2.95;1.30;;;;;;;20.36;40.07;102077.00;5034271;28;20026;-64
2022/03/08 08:44:48;;;;;;;4.07;1.50;;;;;;;20.42;39.48;102071.28;5035092;28;20033;-64
2022/03/08 08:47:13;;;;;;;3.33;1.48;;;;;;;20.51;38.45;102085.66;5033650;28;20099;-62
2022/03/08 08:49:39;;;;;;;4.93;1.75;;;;;;;20.54;38.66;102065.09;5033686;28;20087;-63
2022/03/08 08:52:04;;;;;;;6.03;1.60;;;;;;;20.56;39.21;102062.34;5034213;28;20040;-63
2022/03/08 08:54:30;;;;;;;4.85;1.80;;;;;;;20.57;39.17;102064.88;5033095;28;20040;-63
2022/03/08 08:56:55;;;;;;;7.68;1.98;;;;;;;20.60;39.41;102053.19;5035691;28;20034;-63
2022/03/08 08:59:20;;;;;;;3.90;1.70;;;;;;;20.61;38.99;102062.84;5035670;28;20104;-64
2022/03/08 09:01:46;;;;;;;4.80;1.60;;;;;;;20.63;39.03;102060.91;5033486;28;20262;-63
2022/03/08 09:04:11;;;;;;;3.40;1.48;;;;;;;20.62;39.52;102061.91;5033945;28;20030;-62
2022/03/08 09:06:37;;;;;;;4.53;2.10;;;;;;;20.62;39.37;102051.31;5034140;28;20056;-64
2022/03/08 09:09:03;;;;;;;5.15;1.60;;;;;;;20.61;39.67;102068.97;5033052;28;20017;-64
2022/03/08 09:11:28;;;;;;;5.68;1.50;;;;;;;20.62;39.93;102075.97;5033453;28;20049;-63
2022/03/08 09:13:56;;;;;;;4.88;1.90;;;;;;;20.61;39.97;102071.63;5033760;28;20021;-64
2022/03/08 09:16:24;;;;;;;4.90;1.67;;;;;;;20.61;39.39;102068.13;5032316;28;20025;-63
2022/03/08 09:18:49;;;;;;;4.68;1.50;;;;;;;20.63;39.25;102063.56;5032836;28;20026;-62
2022/03/08 09:21:15;;;;;;;4.67;1.50;;;;;;;20.61;39.61;102053.09;5032696;28;20037;-62
2022/03/08 09:23:41;;;;;;;6.55;1.70;;;;;;;20.61;39.67;102055.72;5031682;28;20262;-63
2022/03/08 09:26:08;;;;;;;4.28;1.77;;;;;;;20.62;39.54;102051.31;5033451;28;20144;-62
2022/03/08 09:28:33;;;;;;;4.40;1.80;;;;;;;20.61;39.75;102042.50;5032435;28;20033;-62
2022/03/08 09:30:59;;;;;;;3.30;1.50;;;;;;;20.60;39.93;102037.31;5033625;28;20025;-62
2022/03/08 09:33:25;;;;;;;4.07;1.40;;;;;;;20.59;39.59;102040.94;5032921;28;20022;-62
2022/03/08 09:35:50;;;;;;;3.08;1.45;;;;;;;20.59;39.85;102041.75;5032739;28;20021;-62
2022/03/08 09:38:15;;;;;;;4.20;1.40;;;;;;;20.58;39.56;102032.13;5033987;28;20052;-62
2022/03/08 09:40:44;;;;;;;3.33;1.30;;;;;;;20.58;39.75;102029.47;5033020;28;20020;-62
2022/03/08 09:43:10;;;;;;;3.95;1.48;;;;;;;20.58;39.91;102023.34;5032043;28;20025;-62
2022/03/08 09:45:35;;;;;;;3.35;1.38;;;;;;;20.58;40.35;102028.63;5032856;28;20025;-62
2022/03/08 09:48:01;;;;;;;2.78;1.17;;;;;;;20.57;40.30;102025.16;5033486;28;20357;-62
2022/03/08 09:50:28;;;;;;;3.80;1.50;;;;;;;20.56;40.13;102025.25;5031795;28;20033;-61
2022/03/08 09:52:56;;;;;;;3.15;1.58;;;;;;;20.53;40.52;102022.84;5032419;28;20487;-62
2022/03/08 09:55:23;;;;;;;6.55;1.40;;;;;;;20.50;40.00;102026.53;5031954;28;20033;-62
2022/03/08 09:57:49;;;;;;;4.50;1.50;;;;;;;20.48;39.60;102029.31;5031588;28;20096;-61
2022/03/08 10:00:14;;;;;;;3.75;1.63;;;;;;;20.46;39.77;102036.53;5032562;28;20044;-62
2022/03/08 10:02:51;;;;;;;3.13;1.45;;;;;;;20.46;40.09;102020.63;5031916;28;20112;-62
2022/03/08 10:05:22;;;;;;;3.10;1.40;;;;;;;20.45;40.00;102016.28;5031436;28;20025;-62
2022/03/08 10:08:13;;;;;;;3.00;1.42;;;;;;;20.45;39.92;102023.38;5033576;28;20021;-62
2022/03/08 10:10:58;;;;;;;3.40;1.38;;;;;;;20.42;40.03;102013.84;5034789;28;20120;-62
2022/03/08 10:13:31;;;;;;;3.40;1.40;;;;;;;20.39;39.84;102011.44;5035637;28;20021;-62
2022/03/08 10:16:16;;;;;;;4.07;1.60;;;;;;;20.39;40.46;102000.00;5035754;28;20057;-63
2022/03/08 10:18:44;;;;;;;2.55;1.42;;;;;;;20.38;40.91;102009.75;5034766;28;20045;-62
2022/03/08 10:21:23;;;;;;;4.03;1.60;;;;;;;20.38;40.64;102006.28;5035601;28;20534;-62
2022/03/08 10:23:49;;;;;;;3.67;2.13;;;;;;;20.38;40.71;102004.47;5035488;28;20487;-62
2022/03/08 10:26:14;;;;;;;4.23;1.40;;;;;;;20.39;40.55;102000.84;5034879;28;20029;-62
2022/03/08 10:28:50;;;;;;;3.13;1.23;;;;;;;20.39;40.81;102011.44;5035109;28;20630;-62
2022/03/08 10:31:16;;;;;;;4.18;1.48;;;;;;;20.40;40.83;102010.50;5035788;28;20028;-62
2022/03/08 10:33:43;;;;;;;2.95;1.38;;;;;;;20.40;40.89;102014.94;5034467;28;20021;-62
2022/03/08 10:36:15;;;;;;;3.28;1.15;;;;;;;20.38;40.63;101998.34;5035472;28;20377;-62
2022/03/08 10:39:02;;;;;;;3.63;1.35;;;;;;;20.38;40.99;101999.16;5035191;28;20049;-61
2022/03/08 10:41:30;;;;;;;3.20;1.35;;;;;;;20.36;40.61;102000.22;5035359;28;20096;-62
2022/03/08 10:43:56;;;;;;;2.58;1.30;;;;;;;20.35;40.79;101999.38;5035532;28;20097;-62
2022/03/08 10:46:22;;;;;;;3.50;1.38;;;;;;;20.34;39.85;101994.22;5034262;28;20104;-62
2022/03/08 10:48:48;;;;;;;2.53;1.27;;;;;;;20.34;40.20;101988.91;5035246;28;20069;-62
2022/03/08 10:51:14;;;;;;;3.15;1.30;;;;;;;20.36;40.59;101981.69;5035376;28;20021;-63
2022/03/08 10:53:41;;;;;;;3.78;1.20;;;;;;;20.34;39.31;101984.44;5034007;28;20052;-62
2022/03/08 10:56:08;;;;;;;7.35;1.40;;;;;;;20.34;39.90;101976.50;5035263;28;20022;-63
2022/03/08 10:58:34;;;;;;;3.35;1.45;;;;;;;20.35;40.33;101975.56;5034894;28;20538;-61
2022/03/08 11:01:01;;;;;;;3.38;1.48;;;;;;;20.36;40.68;101981.69;5034298;28;20029;-62
2022/03/08 11:03:27;;;;;;;3.03;1.20;;;;;;;20.38;40.71;101980.63;5034626;28;20112;-62
2022/03/08 11:05:55;;;;;;;3.00;1.20;;;;;;;20.37;41.10;101973.63;5034845;28;20064;-63
2022/03/08 11:08:21;;;;;;;2.75;1.30;;;;;;;20.35;41.14;101978.22;5033720;28;20702;-63
2022/03/08 11:10:47;;;;;;;3.35;1.50;;;;;;;20.32;40.86;101969.66;5034589;28;20041;-63
2022/03/08 11:13:15;;;;;;;3.13;1.40;;;;;;;20.31;41.48;101979.38;5034794;28;20026;-63
2022/03/08 11:15:43;;;;;;;2.92;1.30;;;;;;;20.29;41.48;101979.50;5033468;28;20037;-64
2022/03/08 11:18:10;;;;;;;3.90;1.40;;;;;;;20.28;41.52;101969.88;5034573;28;20447;-63
2022/03/08 11:20:37;;;;;;;3.00;1.70;;;;;;;20.27;41.58;101972.63;5034180;28;20029;-62